sensor_id;sensor_type;location;lat;lon;timestamp;P1;durP1;ratioP1;P2;durP2;ratioP2
66175;SDS011;52977;44.816;20.538;2024-03-06T00:02:05;15.38;;;6.75;;
66175;SDS011;52977;44.816;20.538;2024-03-06T00:04:32;15.95;;;7.07;;
66175;SDS011;52977;44.816;20.538;2024-03-06T00:06:59;17.85;;;8.80;;
66175;SDS011;52977;44.816;20.538;2024-03-06T00:09:25;17.27;;;9.35;;
66175;SDS011;52977;44.816;20.538;2024-03-06T00:11:55;20.00;;;9.95;;
66175;SDS011;52977;44.816;20.538;2024-03-06T00:14:22;18.67;;;9.93;;
66175;SDS011;52977;44.816;20.538;2024-03-06T00:16:49;19.60;;;9.20;;
66175;SDS011;52977;44.816;20.538;2024-03-06T00:19:16;21.15;;;9.10;;
66175;SDS011;52977;44.816;20.538;2024-03-06T00:21:43;20.20;;;8.15;;
66175;SDS011;52977;44.816;20.538;2024-03-06T00:24:13;18.90;;;8.30;;
66175;SDS011;52977;44.816;20.538;2024-03-06T00:26:46;14.63;;;7.53;;
66175;SDS011;52977;44.816;20.538;2024-03-06T00:29:13;14.80;;;7.45;;
66175;SDS011;52977;44.816;20.538;2024-03-06T00:31:44;17.63;;;7.82;;
66175;SDS011;52977;44.816;20.538;2024-03-06T00:34:11;14.98;;;7.78;;
66175;SDS011;52977;44.816;20.538;2024-03-06T00:36:44;17.17;;;8.13;;
66175;SDS011;52977;44.816;20.538;2024-03-06T00:39:11;13.98;;;7.80;;
66175;SDS011;52977;44.816;20.538;2024-03-06T00:41:40;14.68;;;7.53;;
66175;SDS011;52977;44.816;20.538;2024-03-06T00:44:07;14.32;;;7.25;;
66175;SDS011;52977;44.816;20.538;2024-03-06T00:46:34;15.38;;;7.97;;
66175;SDS011;52977;44.816;20.538;2024-03-06T00:49:00;19.05;;;8.95;;
66175;SDS011;52977;44.816;20.538;2024-03-06T00:51:26;16.40;;;9.10;;
66175;SDS011;52977;44.816;20.538;2024-03-06T00:53:53;18.23;;;8.75;;
66175;SDS011;52977;44.816;20.538;2024-03-06T00:56:19;17.15;;;8.23;;
66175;SDS011;52977;44.816;20.538;2024-03-06T00:58:45;15.57;;;7.68;;
66175;SDS011;52977;44.816;20.538;2024-03-06T01:01:13;16.90;;;8.77;;
66175;SDS011;52977;44.816;20.538;2024-03-06T01:03:40;14.55;;;8.32;;
66175;SDS011;52977;44.816;20.538;2024-03-06T01:06:07;13.95;;;8.55;;
66175;SDS011;52977;44.816;20.538;2024-03-06T01:08:33;14.00;;;7.95;;
66175;SDS011;52977;44.816;20.538;2024-03-06T01:10:59;16.23;;;8.25;;
66175;SDS011;52977;44.816;20.538;2024-03-06T01:13:25;13.10;;;6.65;;
66175;SDS011;52977;44.816;20.538;2024-03-06T01:15:52;14.13;;;5.88;;
66175;SDS011;52977;44.816;20.538;2024-03-06T01:18:18;15.95;;;6.00;;
66175;SDS011;52977;44.816;20.538;2024-03-06T01:20:44;9.35;;;5.60;;
66175;SDS011;52977;44.816;20.538;2024-03-06T01:23:10;15.02;;;7.13;;
66175;SDS011;52977;44.816;20.538;2024-03-06T01:25:36;16.20;;;6.93;;
66175;SDS011;52977;44.816;20.538;2024-03-06T01:28:02;14.27;;;6.72;;
66175;SDS011;52977;44.816;20.538;2024-03-06T01:30:27;12.88;;;6.10;;
66175;SDS011;52977;44.816;20.538;2024-03-06T01:32:53;11.77;;;6.05;;
66175;SDS011;52977;44.816;20.538;2024-03-06T01:35:19;12.15;;;6.82;;
66175;SDS011;52977;44.816;20.538;2024-03-06T01:37:45;14.00;;;6.18;;
66175;SDS011;52977;44.816;20.538;2024-03-06T01:40:11;11.35;;;5.07;;
66175;SDS011;52977;44.816;20.538;2024-03-06T01:42:38;10.73;;;5.45;;
66175;SDS011;52977;44.816;20.538;2024-03-06T01:45:04;9.88;;;4.75;;
66175;SDS011;52977;44.816;20.538;2024-03-06T01:47:31;11.38;;;5.07;;
66175;SDS011;52977;44.816;20.538;2024-03-06T01:49:58;15.32;;;5.40;;
66175;SDS011;52977;44.816;20.538;2024-03-06T01:52:25;12.73;;;6.18;;
66175;SDS011;52977;44.816;20.538;2024-03-06T01:54:52;12.25;;;5.55;;
66175;SDS011;52977;44.816;20.538;2024-03-06T01:57:19;12.35;;;5.72;;
66175;SDS011;52977;44.816;20.538;2024-03-06T01:59:46;12.40;;;5.18;;
66175;SDS011;52977;44.816;20.538;2024-03-06T02:02:13;13.13;;;5.82;;
66175;SDS011;52977;44.816;20.538;2024-03-06T02:04:40;11.25;;;4.85;;
66175;SDS011;52977;44.816;20.538;2024-03-06T02:07:09;12.75;;;5.80;;
66175;SDS011;52977;44.816;20.538;2024-03-06T02:09:39;12.07;;;6.18;;
66175;SDS011;52977;44.816;20.538;2024-03-06T02:12:06;10.23;;;5.55;;
66175;SDS011;52977;44.816;20.538;2024-03-06T02:14:36;21.88;;;8.02;;
66175;SDS011;52977;44.816;20.538;2024-03-06T02:17:03;19.05;;;7.15;;
66175;SDS011;52977;44.816;20.538;2024-03-06T02:19:41;13.00;;;5.60;;
66175;SDS011;52977;44.816;20.538;2024-03-06T02:24:36;17.48;;;6.22;;
66175;SDS011;52977;44.816;20.538;2024-03-06T02:27:04;15.40;;;7.47;;
66175;SDS011;52977;44.816;20.538;2024-03-06T02:29:31;13.63;;;6.50;;
66175;SDS011;52977;44.816;20.538;2024-03-06T02:31:59;17.27;;;7.63;;
66175;SDS011;52977;44.816;20.538;2024-03-06T02:34:25;18.42;;;8.38;;
66175;SDS011;52977;44.816;20.538;2024-03-06T02:36:51;20.48;;;9.27;;
66175;SDS011;52977;44.816;20.538;2024-03-06T02:39:18;21.55;;;9.18;;
66175;SDS011;52977;44.816;20.538;2024-03-06T02:41:45;19.55;;;9.10;;
66175;SDS011;52977;44.816;20.538;2024-03-06T02:44:11;18.77;;;8.60;;
66175;SDS011;52977;44.816;20.538;2024-03-06T02:46:37;18.95;;;9.38;;
66175;SDS011;52977;44.816;20.538;2024-03-06T02:49:04;20.30;;;9.55;;
66175;SDS011;52977;44.816;20.538;2024-03-06T02:51:31;19.52;;;9.77;;
66175;SDS011;52977;44.816;20.538;2024-03-06T02:53:57;17.45;;;9.05;;
66175;SDS011;52977;44.816;20.538;2024-03-06T02:56:24;19.45;;;8.20;;
66175;SDS011;52977;44.816;20.538;2024-03-06T02:58:50;18.10;;;9.27;;
66175;SDS011;52977;44.816;20.538;2024-03-06T03:01:16;19.83;;;9.13;;
66175;SDS011;52977;44.816;20.538;2024-03-06T03:03:43;21.55;;;9.43;;
66175;SDS011;52977;44.816;20.538;2024-03-06T03:06:10;26.52;;;11.15;;
66175;SDS011;52977;44.816;20.538;2024-03-06T03:08:37;21.65;;;9.93;;
66175;SDS011;52977;44.816;20.538;2024-03-06T03:11:03;19.92;;;10.43;;
66175;SDS011;52977;44.816;20.538;2024-03-06T03:13:30;23.63;;;10.63;;
66175;SDS011;52977;44.816;20.538;2024-03-06T03:15:59;26.00;;;11.63;;
66175;SDS011;52977;44.816;20.538;2024-03-06T03:18:26;22.15;;;10.38;;
66175;SDS011;52977;44.816;20.538;2024-03-06T03:20:53;23.70;;;10.60;;
66175;SDS011;52977;44.816;20.538;2024-03-06T03:23:19;18.77;;;10.20;;
66175;SDS011;52977;44.816;20.538;2024-03-06T03:25:48;23.70;;;11.50;;
66175;SDS011;52977;44.816;20.538;2024-03-06T03:28:33;23.17;;;11.10;;
66175;SDS011;52977;44.816;20.538;2024-03-06T03:31:00;19.50;;;10.38;;
66175;SDS011;52977;44.816;20.538;2024-03-06T03:33:26;21.23;;;10.57;;
66175;SDS011;52977;44.816;20.538;2024-03-06T03:35:52;24.50;;;10.60;;
66175;SDS011;52977;44.816;20.538;2024-03-06T03:38:19;22.67;;;10.73;;
66175;SDS011;52977;44.816;20.538;2024-03-06T03:40:48;22.48;;;11.93;;
66175;SDS011;52977;44.816;20.538;2024-03-06T03:43:14;21.80;;;11.43;;
66175;SDS011;52977;44.816;20.538;2024-03-06T03:45:41;24.20;;;11.10;;
66175;SDS011;52977;44.816;20.538;2024-03-06T03:48:08;21.50;;;10.82;;
66175;SDS011;52977;44.816;20.538;2024-03-06T03:50:34;20.08;;;10.23;;
66175;SDS011;52977;44.816;20.538;2024-03-06T03:53:00;23.77;;;10.93;;
66175;SDS011;52977;44.816;20.538;2024-03-06T03:55:27;25.08;;;12.50;;
66175;SDS011;52977;44.816;20.538;2024-03-06T03:57:53;26.35;;;11.63;;
66175;SDS011;52977;44.816;20.538;2024-03-06T04:00:19;26.08;;;11.50;;
66175;SDS011;52977;44.816;20.538;2024-03-06T04:02:46;22.98;;;11.18;;
66175;SDS011;52977;44.816;20.538;2024-03-06T04:05:12;23.60;;;10.60;;
66175;SDS011;52977;44.816;20.538;2024-03-06T04:07:39;25.58;;;12.30;;
66175;SDS011;52977;44.816;20.538;2024-03-06T04:10:05;22.20;;;11.10;;
66175;SDS011;52977;44.816;20.538;2024-03-06T04:12:33;26.25;;;11.23;;
66175;SDS011;52977;44.816;20.538;2024-03-06T04:14:59;21.80;;;11.40;;
66175;SDS011;52977;44.816;20.538;2024-03-06T04:17:25;21.27;;;11.95;;
66175;SDS011;52977;44.816;20.538;2024-03-06T04:19:52;22.98;;;11.93;;
66175;SDS011;52977;44.816;20.538;2024-03-06T04:22:19;23.80;;;11.35;;
66175;SDS011;52977;44.816;20.538;2024-03-06T04:24:44;22.52;;;12.20;;
66175;SDS011;52977;44.816;20.538;2024-03-06T04:27:10;24.00;;;12.45;;
66175;SDS011;52977;44.816;20.538;2024-03-06T04:29:36;25.48;;;11.85;;
66175;SDS011;52977;44.816;20.538;2024-03-06T04:32:03;23.58;;;12.38;;
66175;SDS011;52977;44.816;20.538;2024-03-06T04:34:29;29.02;;;12.55;;
66175;SDS011;52977;44.816;20.538;2024-03-06T04:36:55;23.20;;;11.80;;
66175;SDS011;52977;44.816;20.538;2024-03-06T04:39:21;21.58;;;11.70;;
66175;SDS011;52977;44.816;20.538;2024-03-06T04:41:48;24.67;;;11.60;;
66175;SDS011;52977;44.816;20.538;2024-03-06T04:44:15;23.35;;;11.73;;
66175;SDS011;52977;44.816;20.538;2024-03-06T04:46:41;25.85;;;11.93;;
66175;SDS011;52977;44.816;20.538;2024-03-06T04:49:07;22.35;;;11.35;;
66175;SDS011;52977;44.816;20.538;2024-03-06T04:51:34;21.00;;;11.05;;
66175;SDS011;52977;44.816;20.538;2024-03-06T04:54:01;19.98;;;11.05;;
66175;SDS011;52977;44.816;20.538;2024-03-06T04:56:32;21.73;;;11.27;;
66175;SDS011;52977;44.816;20.538;2024-03-06T04:58:59;21.98;;;10.75;;
66175;SDS011;52977;44.816;20.538;2024-03-06T05:01:34;22.33;;;10.80;;
66175;SDS011;52977;44.816;20.538;2024-03-06T05:04:06;21.58;;;10.25;;
66175;SDS011;52977;44.816;20.538;2024-03-06T05:06:32;21.27;;;11.38;;
66175;SDS011;52977;44.816;20.538;2024-03-06T05:08:58;22.83;;;10.80;;
66175;SDS011;52977;44.816;20.538;2024-03-06T05:11:23;21.63;;;11.38;;
66175;SDS011;52977;44.816;20.538;2024-03-06T05:13:49;23.95;;;10.27;;
66175;SDS011;52977;44.816;20.538;2024-03-06T05:16:15;23.08;;;11.43;;
66175;SDS011;52977;44.816;20.538;2024-03-06T05:18:42;18.38;;;10.23;;
66175;SDS011;52977;44.816;20.538;2024-03-06T05:21:08;21.35;;;10.80;;
66175;SDS011;52977;44.816;20.538;2024-03-06T05:23:34;34.38;;;16.05;;
66175;SDS011;52977;44.816;20.538;2024-03-06T05:26:01;30.92;;;14.23;;
66175;SDS011;52977;44.816;20.538;2024-03-06T05:28:28;30.92;;;13.25;;
66175;SDS011;52977;44.816;20.538;2024-03-06T05:30:55;34.60;;;14.30;;
66175;SDS011;52977;44.816;20.538;2024-03-06T05:33:21;27.15;;;13.43;;
66175;SDS011;52977;44.816;20.538;2024-03-06T05:35:48;28.38;;;13.63;;
66175;SDS011;52977;44.816;20.538;2024-03-06T05:38:14;27.63;;;12.82;;
66175;SDS011;52977;44.816;20.538;2024-03-06T05:40:40;27.13;;;12.75;;
66175;SDS011;52977;44.816;20.538;2024-03-06T05:43:11;27.13;;;13.38;;
66175;SDS011;52977;44.816;20.538;2024-03-06T05:45:37;31.30;;;13.15;;
66175;SDS011;52977;44.816;20.538;2024-03-06T05:48:04;25.88;;;12.18;;
66175;SDS011;52977;44.816;20.538;2024-03-06T05:50:30;28.92;;;13.32;;
66175;SDS011;52977;44.816;20.538;2024-03-06T05:52:57;26.90;;;13.35;;
66175;SDS011;52977;44.816;20.538;2024-03-06T05:55:23;29.38;;;14.50;;
66175;SDS011;52977;44.816;20.538;2024-03-06T05:57:49;28.83;;;13.65;;
66175;SDS011;52977;44.816;20.538;2024-03-06T06:00:15;25.73;;;13.50;;
66175;SDS011;52977;44.816;20.538;2024-03-06T06:02:43;22.48;;;12.00;;
66175;SDS011;52977;44.816;20.538;2024-03-06T06:05:11;26.25;;;14.35;;
66175;SDS011;52977;44.816;20.538;2024-03-06T06:07:38;27.30;;;14.75;;
66175;SDS011;52977;44.816;20.538;2024-03-06T06:10:05;28.73;;;15.88;;
66175;SDS011;52977;44.816;20.538;2024-03-06T06:12:35;28.73;;;15.40;;
66175;SDS011;52977;44.816;20.538;2024-03-06T06:15:02;28.45;;;14.63;;
66175;SDS011;52977;44.816;20.538;2024-03-06T06:17:28;27.15;;;14.68;;
66175;SDS011;52977;44.816;20.538;2024-03-06T06:19:55;27.52;;;13.75;;
66175;SDS011;52977;44.816;20.538;2024-03-06T06:22:21;27.30;;;14.55;;
66175;SDS011;52977;44.816;20.538;2024-03-06T06:24:47;27.05;;;13.98;;
66175;SDS011;52977;44.816;20.538;2024-03-06T06:27:14;24.20;;;13.60;;
66175;SDS011;52977;44.816;20.538;2024-03-06T06:29:41;25.92;;;13.93;;
66175;SDS011;52977;44.816;20.538;2024-03-06T06:32:07;26.88;;;14.40;;
66175;SDS011;52977;44.816;20.538;2024-03-06T06:34:32;25.65;;;13.20;;
66175;SDS011;52977;44.816;20.538;2024-03-06T06:36:58;29.63;;;13.93;;
66175;SDS011;52977;44.816;20.538;2024-03-06T06:39:24;28.48;;;13.02;;
66175;SDS011;52977;44.816;20.538;2024-03-06T06:41:49;24.20;;;12.48;;
66175;SDS011;52977;44.816;20.538;2024-03-06T06:44:15;25.90;;;13.18;;
66175;SDS011;52977;44.816;20.538;2024-03-06T06:46:41;29.52;;;14.10;;
66175;SDS011;52977;44.816;20.538;2024-03-06T06:49:08;26.48;;;13.73;;
66175;SDS011;52977;44.816;20.538;2024-03-06T06:51:34;24.65;;;12.43;;
66175;SDS011;52977;44.816;20.538;2024-03-06T06:54:00;27.15;;;13.65;;
66175;SDS011;52977;44.816;20.538;2024-03-06T06:56:27;34.33;;;16.38;;
66175;SDS011;52977;44.816;20.538;2024-03-06T06:58:53;38.67;;;16.73;;
66175;SDS011;52977;44.816;20.538;2024-03-06T07:01:19;33.78;;;15.48;;
66175;SDS011;52977;44.816;20.538;2024-03-06T07:03:46;33.40;;;15.93;;
66175;SDS011;52977;44.816;20.538;2024-03-06T07:06:12;29.83;;;15.30;;
66175;SDS011;52977;44.816;20.538;2024-03-06T07:08:38;30.45;;;14.25;;
66175;SDS011;52977;44.816;20.538;2024-03-06T07:11:05;26.65;;;12.68;;
66175;SDS011;52977;44.816;20.538;2024-03-06T07:13:31;27.75;;;12.50;;
66175;SDS011;52977;44.816;20.538;2024-03-06T07:15:57;29.08;;;13.77;;
66175;SDS011;52977;44.816;20.538;2024-03-06T07:18:22;26.58;;;13.35;;
66175;SDS011;52977;44.816;20.538;2024-03-06T07:20:48;27.60;;;14.20;;
66175;SDS011;52977;44.816;20.538;2024-03-06T07:23:14;28.20;;;14.10;;
66175;SDS011;52977;44.816;20.538;2024-03-06T07:25:40;30.65;;;14.90;;
66175;SDS011;52977;44.816;20.538;2024-03-06T07:28:06;35.17;;;17.27;;
66175;SDS011;52977;44.816;20.538;2024-03-06T07:30:33;32.70;;;16.98;;
66175;SDS011;52977;44.816;20.538;2024-03-06T07:33:00;35.10;;;16.98;;
66175;SDS011;52977;44.816;20.538;2024-03-06T07:35:26;41.58;;;19.15;;
66175;SDS011;52977;44.816;20.538;2024-03-06T07:37:53;73.43;;;27.83;;
66175;SDS011;52977;44.816;20.538;2024-03-06T07:40:19;62.72;;;25.02;;
66175;SDS011;52977;44.816;20.538;2024-03-06T07:42:45;40.15;;;19.10;;
66175;SDS011;52977;44.816;20.538;2024-03-06T07:45:11;35.50;;;16.90;;
66175;SDS011;52977;44.816;20.538;2024-03-06T07:47:38;41.85;;;17.95;;
66175;SDS011;52977;44.816;20.538;2024-03-06T07:50:05;28.60;;;14.25;;
66175;SDS011;52977;44.816;20.538;2024-03-06T07:52:32;29.33;;;15.02;;
66175;SDS011;52977;44.816;20.538;2024-03-06T07:54:58;30.17;;;14.95;;
66175;SDS011;52977;44.816;20.538;2024-03-06T07:57:24;33.00;;;15.00;;
66175;SDS011;52977;44.816;20.538;2024-03-06T07:59:51;30.80;;;15.85;;
66175;SDS011;52977;44.816;20.538;2024-03-06T08:02:20;33.67;;;17.20;;
66175;SDS011;52977;44.816;20.538;2024-03-06T08:04:47;32.97;;;15.30;;
66175;SDS011;52977;44.816;20.538;2024-03-06T08:07:14;33.50;;;16.17;;
66175;SDS011;52977;44.816;20.538;2024-03-06T08:09:40;37.22;;;16.95;;
66175;SDS011;52977;44.816;20.538;2024-03-06T08:12:06;31.00;;;16.52;;
66175;SDS011;52977;44.816;20.538;2024-03-06T08:14:33;41.65;;;19.05;;
66175;SDS011;52977;44.816;20.538;2024-03-06T08:16:59;47.58;;;22.95;;
66175;SDS011;52977;44.816;20.538;2024-03-06T08:19:25;63.78;;;30.15;;
66175;SDS011;52977;44.816;20.538;2024-03-06T08:21:52;63.13;;;31.00;;
66175;SDS011;52977;44.816;20.538;2024-03-06T08:24:18;55.50;;;29.25;;
66175;SDS011;52977;44.816;20.538;2024-03-06T08:26:44;43.20;;;23.15;;
66175;SDS011;52977;44.816;20.538;2024-03-06T08:29:11;41.75;;;21.83;;
66175;SDS011;52977;44.816;20.538;2024-03-06T08:31:37;39.38;;;18.80;;
66175;SDS011;52977;44.816;20.538;2024-03-06T08:34:04;39.13;;;18.33;;
66175;SDS011;52977;44.816;20.538;2024-03-06T08:36:31;40.83;;;19.08;;
66175;SDS011;52977;44.816;20.538;2024-03-06T08:38:57;37.45;;;17.92;;
66175;SDS011;52977;44.816;20.538;2024-03-06T08:41:23;43.78;;;20.63;;
66175;SDS011;52977;44.816;20.538;2024-03-06T08:43:49;36.63;;;18.45;;
66175;SDS011;52977;44.816;20.538;2024-03-06T08:46:16;41.50;;;18.27;;
66175;SDS011;52977;44.816;20.538;2024-03-06T08:48:42;44.58;;;18.38;;
66175;SDS011;52977;44.816;20.538;2024-03-06T08:51:08;41.10;;;19.95;;
66175;SDS011;52977;44.816;20.538;2024-03-06T08:53:36;38.08;;;18.05;;
66175;SDS011;52977;44.816;20.538;2024-03-06T08:56:04;41.95;;;18.58;;
66175;SDS011;52977;44.816;20.538;2024-03-06T08:58:31;35.15;;;17.45;;
66175;SDS011;52977;44.816;20.538;2024-03-06T09:00:57;39.80;;;17.90;;
66175;SDS011;52977;44.816;20.538;2024-03-06T09:03:24;37.53;;;17.85;;
66175;SDS011;52977;44.816;20.538;2024-03-06T09:05:50;35.25;;;17.50;;
66175;SDS011;52977;44.816;20.538;2024-03-06T09:08:16;34.08;;;18.15;;
66175;SDS011;52977;44.816;20.538;2024-03-06T09:10:43;37.03;;;17.25;;
66175;SDS011;52977;44.816;20.538;2024-03-06T09:13:09;39.03;;;19.80;;
66175;SDS011;52977;44.816;20.538;2024-03-06T09:15:35;39.00;;;20.95;;
66175;SDS011;52977;44.816;20.538;2024-03-06T09:18:00;40.67;;;19.45;;
66175;SDS011;52977;44.816;20.538;2024-03-06T09:20:26;34.88;;;18.13;;
66175;SDS011;52977;44.816;20.538;2024-03-06T09:22:52;37.22;;;17.55;;
66175;SDS011;52977;44.816;20.538;2024-03-06T09:25:22;34.67;;;17.65;;
66175;SDS011;52977;44.816;20.538;2024-03-06T09:27:48;36.00;;;17.90;;
66175;SDS011;52977;44.816;20.538;2024-03-06T09:30:14;33.17;;;16.42;;
66175;SDS011;52977;44.816;20.538;2024-03-06T09:32:41;36.55;;;17.42;;
66175;SDS011;52977;44.816;20.538;2024-03-06T09:35:10;36.63;;;16.85;;
66175;SDS011;52977;44.816;20.538;2024-03-06T09:37:36;30.90;;;16.48;;
66175;SDS011;52977;44.816;20.538;2024-03-06T09:40:03;36.30;;;17.92;;
66175;SDS011;52977;44.816;20.538;2024-03-06T09:42:29;34.78;;;16.75;;
66175;SDS011;52977;44.816;20.538;2024-03-06T09:44:56;32.03;;;16.30;;
66175;SDS011;52977;44.816;20.538;2024-03-06T09:47:22;31.85;;;15.73;;
66175;SDS011;52977;44.816;20.538;2024-03-06T09:49:53;32.70;;;16.70;;
66175;SDS011;52977;44.816;20.538;2024-03-06T09:52:19;32.92;;;15.90;;
66175;SDS011;52977;44.816;20.538;2024-03-06T09:54:46;33.45;;;15.98;;
66175;SDS011;52977;44.816;20.538;2024-03-06T09:57:14;37.83;;;18.23;;
66175;SDS011;52977;44.816;20.538;2024-03-06T09:59:42;37.30;;;18.13;;
66175;SDS011;52977;44.816;20.538;2024-03-06T10:02:14;32.85;;;17.17;;
66175;SDS011;52977;44.816;20.538;2024-03-06T10:04:51;40.30;;;17.58;;
66175;SDS011;52977;44.816;20.538;2024-03-06T10:07:18;35.70;;;16.38;;
66175;SDS011;52977;44.816;20.538;2024-03-06T10:09:46;34.33;;;15.13;;
66175;SDS011;52977;44.816;20.538;2024-03-06T10:12:16;32.17;;;16.13;;
66175;SDS011;52977;44.816;20.538;2024-03-06T10:14:51;33.67;;;16.55;;
66175;SDS011;52977;44.816;20.538;2024-03-06T10:17:21;35.17;;;15.43;;
66175;SDS011;52977;44.816;20.538;2024-03-06T10:19:52;33.63;;;16.10;;
66175;SDS011;52977;44.816;20.538;2024-03-06T10:22:19;32.83;;;15.55;;
66175;SDS011;52977;44.816;20.538;2024-03-06T10:24:46;34.45;;;17.55;;
66175;SDS011;52977;44.816;20.538;2024-03-06T10:27:16;34.80;;;16.92;;
66175;SDS011;52977;44.816;20.538;2024-03-06T10:29:43;34.47;;;16.23;;
66175;SDS011;52977;44.816;20.538;2024-03-06T10:32:10;32.28;;;15.43;;
66175;SDS011;52977;44.816;20.538;2024-03-06T10:34:37;33.67;;;15.98;;
66175;SDS011;52977;44.816;20.538;2024-03-06T10:37:06;28.52;;;14.82;;
66175;SDS011;52977;44.816;20.538;2024-03-06T10:39:33;28.35;;;13.73;;
66175;SDS011;52977;44.816;20.538;2024-03-06T10:42:00;28.70;;;13.50;;
66175;SDS011;52977;44.816;20.538;2024-03-06T10:47:00;26.00;;;11.65;;
66175;SDS011;52977;44.816;20.538;2024-03-06T10:49:28;26.95;;;13.32;;
66175;SDS011;52977;44.816;20.538;2024-03-06T10:51:58;30.17;;;14.50;;
66175;SDS011;52977;44.816;20.538;2024-03-06T10:54:26;33.50;;;14.20;;
66175;SDS011;52977;44.816;20.538;2024-03-06T10:56:54;32.47;;;14.55;;
66175;SDS011;52977;44.816;20.538;2024-03-06T10:59:21;32.75;;;13.65;;
66175;SDS011;52977;44.816;20.538;2024-03-06T11:01:54;28.90;;;13.57;;
66175;SDS011;52977;44.816;20.538;2024-03-06T11:04:23;24.75;;;12.57;;
66175;SDS011;52977;44.816;20.538;2024-03-06T11:06:50;31.80;;;13.98;;
66175;SDS011;52977;44.816;20.538;2024-03-06T11:09:17;32.22;;;14.02;;
66175;SDS011;52977;44.816;20.538;2024-03-06T11:11:47;28.77;;;14.48;;
66175;SDS011;52977;44.816;20.538;2024-03-06T11:14:18;30.95;;;15.00;;
66175;SDS011;52977;44.816;20.538;2024-03-06T11:16:57;35.25;;;14.13;;
66175;SDS011;52977;44.816;20.538;2024-03-06T11:19:31;34.78;;;16.95;;
66175;SDS011;52977;44.816;20.538;2024-03-06T11:21:58;44.90;;;18.67;;
66175;SDS011;52977;44.816;20.538;2024-03-06T11:24:32;33.75;;;16.58;;
66175;SDS011;52977;44.816;20.538;2024-03-06T11:27:00;29.88;;;14.60;;
66175;SDS011;52977;44.816;20.538;2024-03-06T11:32:58;29.65;;;14.50;;
66175;SDS011;52977;44.816;20.538;2024-03-06T11:35:29;28.42;;;13.02;;
66175;SDS011;52977;44.816;20.538;2024-03-06T11:37:56;25.67;;;13.05;;
66175;SDS011;52977;44.816;20.538;2024-03-06T11:40:22;28.92;;;14.43;;
66175;SDS011;52977;44.816;20.538;2024-03-06T11:42:53;36.17;;;15.60;;
66175;SDS011;52977;44.816;20.538;2024-03-06T11:45:22;26.25;;;13.55;;
66175;SDS011;52977;44.816;20.538;2024-03-06T11:48:00;27.08;;;14.10;;
66175;SDS011;52977;44.816;20.538;2024-03-06T11:50:28;26.88;;;13.88;;
66175;SDS011;52977;44.816;20.538;2024-03-06T11:52:58;26.90;;;14.25;;
66175;SDS011;52977;44.816;20.538;2024-03-06T11:55:24;30.60;;;15.15;;
66175;SDS011;52977;44.816;20.538;2024-03-06T11:57:51;32.88;;;16.08;;
66175;SDS011;52977;44.816;20.538;2024-03-06T12:00:22;27.90;;;14.82;;
66175;SDS011;52977;44.816;20.538;2024-03-06T12:02:49;33.63;;;16.05;;
66175;SDS011;52977;44.816;20.538;2024-03-06T12:05:17;37.72;;;18.33;;
66175;SDS011;52977;44.816;20.538;2024-03-06T12:07:47;34.63;;;16.63;;
66175;SDS011;52977;44.816;20.538;2024-03-06T12:10:17;31.55;;;15.88;;
66175;SDS011;52977;44.816;20.538;2024-03-06T12:12:44;30.85;;;15.75;;
66175;SDS011;52977;44.816;20.538;2024-03-06T12:15:11;30.23;;;15.02;;
66175;SDS011;52977;44.816;20.538;2024-03-06T12:17:44;29.70;;;13.20;;
66175;SDS011;52977;44.816;20.538;2024-03-06T12:20:12;24.98;;;12.07;;
66175;SDS011;52977;44.816;20.538;2024-03-06T12:22:58;33.50;;;13.80;;
66175;SDS011;52977;44.816;20.538;2024-03-06T12:25:25;25.50;;;12.15;;
66175;SDS011;52977;44.816;20.538;2024-03-06T12:27:53;25.33;;;11.63;;
66175;SDS011;52977;44.816;20.538;2024-03-06T12:30:21;24.95;;;10.82;;
66175;SDS011;52977;44.816;20.538;2024-03-06T12:32:58;23.83;;;10.82;;
66175;SDS011;52977;44.816;20.538;2024-03-06T12:35:25;18.85;;;9.57;;
66175;SDS011;52977;44.816;20.538;2024-03-06T12:37:52;21.42;;;10.30;;
66175;SDS011;52977;44.816;20.538;2024-03-06T12:40:19;20.70;;;10.10;;
66175;SDS011;52977;44.816;20.538;2024-03-06T12:42:46;17.88;;;9.00;;
66175;SDS011;52977;44.816;20.538;2024-03-06T12:45:14;22.23;;;9.57;;
66175;SDS011;52977;44.816;20.538;2024-03-06T12:47:42;22.15;;;10.85;;
66175;SDS011;52977;44.816;20.538;2024-03-06T12:50:13;21.60;;;10.27;;
66175;SDS011;52977;44.816;20.538;2024-03-06T12:52:40;27.65;;;11.43;;
66175;SDS011;52977;44.816;20.538;2024-03-06T12:55:07;21.08;;;9.57;;
66175;SDS011;52977;44.816;20.538;2024-03-06T12:57:34;24.80;;;10.13;;
66175;SDS011;52977;44.816;20.538;2024-03-06T13:00:00;27.02;;;9.27;;
66175;SDS011;52977;44.816;20.538;2024-03-06T13:02:26;18.80;;;8.93;;
66175;SDS011;52977;44.816;20.538;2024-03-06T13:04:53;24.95;;;10.57;;
66175;SDS011;52977;44.816;20.538;2024-03-06T13:07:19;20.52;;;8.80;;
66175;SDS011;52977;44.816;20.538;2024-03-06T13:09:46;17.73;;;7.72;;
66175;SDS011;52977;44.816;20.538;2024-03-06T13:12:11;13.70;;;6.30;;
66175;SDS011;52977;44.816;20.538;2024-03-06T13:14:37;20.10;;;8.15;;
66175;SDS011;52977;44.816;20.538;2024-03-06T13:17:03;20.88;;;8.80;;
66175;SDS011;52977;44.816;20.538;2024-03-06T13:19:32;20.98;;;8.20;;
66175;SDS011;52977;44.816;20.538;2024-03-06T13:21:58;21.50;;;8.40;;
66175;SDS011;52977;44.816;20.538;2024-03-06T13:24:24;18.10;;;7.40;;
66175;SDS011;52977;44.816;20.538;2024-03-06T13:26:50;16.90;;;7.90;;
66175;SDS011;52977;44.816;20.538;2024-03-06T13:29:17;21.45;;;8.20;;
66175;SDS011;52977;44.816;20.538;2024-03-06T13:31:44;16.40;;;7.05;;
66175;SDS011;52977;44.816;20.538;2024-03-06T13:34:10;17.10;;;6.70;;
66175;SDS011;52977;44.816;20.538;2024-03-06T13:36:36;12.48;;;5.65;;
66175;SDS011;52977;44.816;20.538;2024-03-06T13:39:03;17.10;;;7.35;;
66175;SDS011;52977;44.816;20.538;2024-03-06T13:41:29;14.90;;;6.53;;
66175;SDS011;52977;44.816;20.538;2024-03-06T13:43:55;13.30;;;6.35;;
66175;SDS011;52977;44.816;20.538;2024-03-06T13:46:21;13.52;;;7.22;;
66175;SDS011;52977;44.816;20.538;2024-03-06T13:48:48;13.57;;;6.53;;
66175;SDS011;52977;44.816;20.538;2024-03-06T13:51:14;12.45;;;7.22;;
66175;SDS011;52977;44.816;20.538;2024-03-06T13:53:41;17.00;;;6.63;;
66175;SDS011;52977;44.816;20.538;2024-03-06T13:56:07;13.18;;;6.57;;
66175;SDS011;52977;44.816;20.538;2024-03-06T13:58:34;15.45;;;6.72;;
66175;SDS011;52977;44.816;20.538;2024-03-06T14:01:00;13.07;;;6.38;;
66175;SDS011;52977;44.816;20.538;2024-03-06T14:03:26;18.52;;;6.85;;
66175;SDS011;52977;44.816;20.538;2024-03-06T14:05:53;15.48;;;6.28;;
66175;SDS011;52977;44.816;20.538;2024-03-06T14:08:20;17.30;;;6.32;;
66175;SDS011;52977;44.816;20.538;2024-03-06T14:10:47;14.10;;;6.30;;
66175;SDS011;52977;44.816;20.538;2024-03-06T14:13:14;12.85;;;5.60;;
66175;SDS011;52977;44.816;20.538;2024-03-06T14:15:40;11.15;;;5.57;;
66175;SDS011;52977;44.816;20.538;2024-03-06T14:18:06;14.93;;;6.00;;
66175;SDS011;52977;44.816;20.538;2024-03-06T14:20:33;14.50;;;6.35;;
66175;SDS011;52977;44.816;20.538;2024-03-06T14:22:59;15.02;;;6.15;;